sensor_id;sensor_type;location;lat;lon;timestamp;pressure;altitude;pressure_sealevel;temperature;humidity
50364;BME280;36272;59.400;17.982;2023-08-07T00:02:33;99778.56;;;20.89;100.00
50364;BME280;36272;59.400;17.982;2023-08-07T00:07:34;99787.81;;;20.88;100.00
50364;BME280;36272;59.400;17.982;2023-08-07T00:12:36;99796.97;;;20.92;100.00
50364;BME280;36272;59.400;17.982;2023-08-07T00:17:37;99798.75;;;20.97;100.00
50364;BME280;36272;59.400;17.982;2023-08-07T00:22:39;99821.75;;;21.00;100.00
50364;BME280;36272;59.400;17.982;2023-08-07T00:27:41;99808.03;;;21.05;100.00
50364;BME280;36272;59.400;17.982;2023-08-07T00:32:42;99758.16;;;21.09;100.00
50364;BME280;36272;59.400;17.982;2023-08-07T00:37:44;99686.69;;;21.09;100.00
50364;BME280;36272;59.400;17.982;2023-08-07T00:42:46;99616.97;;;21.04;100.00
50364;BME280;36272;59.400;17.982;2023-08-07T00:47:47;99551.91;;;20.99;100.00
50364;BME280;36272;59.400;17.982;2023-08-07T00:52:49;99512.25;;;20.98;100.00
50364;BME280;36272;59.400;17.982;2023-08-07T00:57:51;99554.97;;;20.98;100.00
50364;BME280;36272;59.400;17.982;2023-08-07T01:02:54;99594.25;;;21.00;100.00
50364;BME280;36272;59.400;17.982;2023-08-07T01:07:57;99629.94;;;21.07;100.00
50364;BME280;36272;59.400;17.982;2023-08-07T01:13:05;99545.19;;;21.05;100.00
50364;BME280;36272;59.400;17.982;2023-08-07T01:18:10;99509.53;;;20.98;100.00
50364;BME280;36272;59.400;17.982;2023-08-07T01:23:12;99577.81;;;20.97;100.00
50364;BME280;36272;59.400;17.982;2023-08-07T01:28:21;99543.31;;;20.97;100.00
50364;BME280;36272;59.400;17.982;2023-08-07T01:33:32;99535.78;;;20.94;100.00
50364;BME280;36272;59.400;17.982;2023-08-07T01:38:36;99550.31;;;20.98;100.00
50364;BME280;36272;59.400;17.982;2023-08-07T01:43:38;99550.63;;;21.05;100.00
50364;BME280;36272;59.400;17.982;2023-08-07T01:48:40;99533.19;;;21.06;100.00
50364;BME280;36272;59.400;17.982;2023-08-07T01:53:42;99517.72;;;21.07;100.00
50364;BME280;36272;59.400;17.982;2023-08-07T01:58:43;99517.72;;;21.07;100.00
50364;BME280;36272;59.400;17.982;2023-08-07T02:03:45;99517.53;;;21.03;100.00
50364;BME280;36272;59.400;17.982;2023-08-07T02:08:46;99500.59;;;20.98;100.00
50364;BME280;36272;59.400;17.982;2023-08-07T02:13:48;99496.94;;;20.93;100.00
50364;BME280;36272;59.400;17.982;2023-08-07T02:18:50;99476.16;;;20.89;100.00
50364;BME280;36272;59.400;17.982;2023-08-07T02:23:51;99465.94;;;20.86;100.00
50364;BME280;36272;59.400;17.982;2023-08-07T02:28:53;99484.16;;;20.85;100.00
50364;BME280;36272;59.400;17.982;2023-08-07T02:33:55;99486.56;;;20.87;100.00
50364;BME280;36272;59.400;17.982;2023-08-07T02:38:56;99496.63;;;20.86;100.00
50364;BME280;36272;59.400;17.982;2023-08-07T02:43:58;99477.28;;;20.88;100.00
50364;BME280;36272;59.400;17.982;2023-08-07T02:48:59;99494.22;;;20.85;100.00
50364;BME280;36272;59.400;17.982;2023-08-07T02:54:01;99497.91;;;20.80;100.00
50364;BME280;36272;59.400;17.982;2023-08-07T02:59:03;99506.53;;;20.82;100.00
50364;BME280;36272;59.400;17.982;2023-08-07T03:04:04;99491.81;;;20.83;100.00
50364;BME280;36272;59.400;17.982;2023-08-07T03:09:09;99477.75;;;20.81;100.00
50364;BME280;36272;59.400;17.982;2023-08-07T03:14:12;99457.59;;;20.73;100.00
50364;BME280;36272;59.400;17.982;2023-08-07T03:19:14;99479.97;;;20.70;100.00
50364;BME280;36272;59.400;17.982;2023-08-07T03:24:15;99487.16;;;20.66;100.00
50364;BME280;36272;59.400;17.982;2023-08-07T03:29:17;99480.78;;;20.62;100.00
50364;BME280;36272;59.400;17.982;2023-08-07T03:34:19;99470.88;;;20.66;100.00
50364;BME280;36272;59.400;17.982;2023-08-07T03:39:20;99478.06;;;20.71;100.00
50364;BME280;36272;59.400;17.982;2023-08-07T03:44:22;99441.00;;;20.75;100.00
50364;BME280;36272;59.400;17.982;2023-08-07T03:49:23;99418.47;;;20.74;100.00
50364;BME280;36272;59.400;17.982;2023-08-07T03:54:25;99406.16;;;20.77;100.00
50364;BME280;36272;59.400;17.982;2023-08-07T03:59:27;99421.34;;;20.78;100.00
50364;BME280;36272;59.400;17.982;2023-08-07T04:04:28;99421.53;;;20.82;100.00
50364;BME280;36272;59.400;17.982;2023-08-07T04:09:31;99402.66;;;20.85;100.00
50364;BME280;36272;59.400;17.982;2023-08-07T04:14:33;99413.03;;;20.92;100.00
50364;BME280;36272;59.400;17.982;2023-08-07T04:19:34;99415.59;;;20.97;100.00
50364;BME280;36272;59.400;17.982;2023-08-07T04:24:36;99412.50;;;21.07;100.00
50364;BME280;36272;59.400;17.982;2023-08-07T04:29:38;99408.31;;;21.19;100.00
50364;BME280;36272;59.400;17.982;2023-08-07T04:34:39;99383.66;;;21.24;100.00
50364;BME280;36272;59.400;17.982;2023-08-07T04:39:41;99385.25;;;21.25;100.00
50364;BME280;36272;59.400;17.982;2023-08-07T04:44:43;99358.22;;;21.29;100.00
50364;BME280;36272;59.400;17.982;2023-08-07T04:49:44;99380.13;;;21.32;100.00
50364;BME280;36272;59.400;17.982;2023-08-07T04:54:46;99418.19;;;21.32;100.00
50364;BME280;36272;59.400;17.982;2023-08-07T04:59:47;99413.72;;;21.28;100.00
50364;BME280;36272;59.400;17.982;2023-08-07T05:04:49;99321.44;;;21.22;100.00
50364;BME280;36272;59.400;17.982;2023-08-07T05:09:51;99346.44;;;21.16;100.00
50364;BME280;36272;59.400;17.982;2023-08-07T05:14:52;99437.25;;;21.15;100.00
50364;BME280;36272;59.400;17.982;2023-08-07T05:19:54;99445.41;;;21.15;100.00
50364;BME280;36272;59.400;17.982;2023-08-07T05:24:55;99400.81;;;21.16;100.00
50364;BME280;36272;59.400;17.982;2023-08-07T05:29:57;99464.44;;;21.15;100.00
50364;BME280;36272;59.400;17.982;2023-08-07T05:34:59;99411.97;;;21.23;100.00
50364;BME280;36272;59.400;17.982;2023-08-07T05:40:01;99388.69;;;21.43;100.00
50364;BME280;36272;59.400;17.982;2023-08-07T05:45:03;99377.75;;;21.61;100.00
50364;BME280;36272;59.400;17.982;2023-08-07T05:50:05;99358.00;;;21.73;100.00
50364;BME280;36272;59.400;17.982;2023-08-07T05:55:07;99350.44;;;21.78;100.00
50364;BME280;36272;59.400;17.982;2023-08-07T06:00:09;99383.63;;;21.72;100.00
50364;BME280;36272;59.400;17.982;2023-08-07T06:05:15;99386.53;;;21.66;100.00
50364;BME280;36272;59.400;17.982;2023-08-07T06:10:17;99360.25;;;21.71;100.00
50364;BME280;36272;59.400;17.982;2023-08-07T06:15:20;99316.47;;;21.84;100.00
50364;BME280;36272;59.400;17.982;2023-08-07T06:20:21;99333.19;;;21.95;100.00
50364;BME280;36272;59.400;17.982;2023-08-07T06:25:23;99333.00;;;22.01;100.00
50364;BME280;36272;59.400;17.982;2023-08-07T06:30:25;99328.06;;;22.15;100.00
50364;BME280;36272;59.400;17.982;2023-08-07T06:35:26;99339.91;;;22.32;100.00
50364;BME280;36272;59.400;17.982;2023-08-07T06:40:28;99314.16;;;22.50;100.00
50364;BME280;36272;59.400;17.982;2023-08-07T06:45:29;99314.16;;;22.50;100.00
50364;BME280;36272;59.400;17.982;2023-08-07T06:50:31;99313.38;;;22.50;100.00
50364;BME280;36272;59.400;17.982;2023-08-07T06:55:33;99338.47;;;22.55;100.00
50364;BME280;36272;59.400;17.982;2023-08-07T07:00:35;99291.97;;;22.73;100.00
50364;BME280;36272;59.400;17.982;2023-08-07T07:05:37;99291.97;;;22.85;100.00
50364;BME280;36272;59.400;17.982;2023-08-07T07:10:39;99291.72;;;22.91;100.00
50364;BME280;36272;59.400;17.982;2023-08-07T07:15:40;99307.88;;;22.96;100.00
50364;BME280;36272;59.400;17.982;2023-08-07T07:20:42;99315.94;;;23.05;100.00
50364;BME280;36272;59.400;17.982;2023-08-07T07:25:44;99294.94;;;23.05;100.00
50364;BME280;36272;59.400;17.982;2023-08-07T07:30:45;99303.34;;;23.12;100.00
50364;BME280;36272;59.400;17.982;2023-08-07T07:35:47;99301.63;;;23.20;100.00
50364;BME280;36272;59.400;17.982;2023-08-07T07:40:49;99289.16;;;23.31;100.00
50364;BME280;36272;59.400;17.982;2023-08-07T07:45:51;99290.38;;;23.34;100.00
50364;BME280;36272;59.400;17.982;2023-08-07T07:50:58;99285.38;;;23.36;100.00
50364;BME280;36272;59.400;17.982;2023-08-07T07:56:00;99314.03;;;23.30;100.00
50364;BME280;36272;59.400;17.982;2023-08-07T08:01:02;99304.59;;;23.27;100.00
50364;BME280;36272;59.400;17.982;2023-08-07T08:06:04;99292.28;;;23.46;100.00
50364;BME280;36272;59.400;17.982;2023-08-07T08:11:05;99297.03;;;23.74;100.00
50364;BME280;36272;59.400;17.982;2023-08-07T08:16:07;99291.28;;;23.91;100.00
50364;BME280;36272;59.400;17.982;2023-08-07T08:21:09;99278.88;;;23.94;100.00
50364;BME280;36272;59.400;17.982;2023-08-07T08:26:10;99288.03;;;24.14;100.00
50364;BME280;36272;59.400;17.982;2023-08-07T08:31:12;99283.75;;;24.29;100.00
50364;BME280;36272;59.400;17.982;2023-08-07T08:36:13;99271.50;;;24.39;99.52
50364;BME280;36272;59.400;17.982;2023-08-07T08:41:16;99272.66;;;24.54;99.20
50364;BME280;36272;59.400;17.982;2023-08-07T08:46:19;99263.16;;;24.64;98.39
50364;BME280;36272;59.400;17.982;2023-08-07T08:51:22;99245.09;;;24.75;97.51
50364;BME280;36272;59.400;17.982;2023-08-07T08:56:25;99240.19;;;24.81;96.99
50364;BME280;36272;59.400;17.982;2023-08-07T09:01:27;99235.31;;;24.90;96.68
50364;BME280;36272;59.400;17.982;2023-08-07T09:06:31;99219.16;;;25.01;96.92
50364;BME280;36272;59.400;17.982;2023-08-07T09:11:34;99219.50;;;25.16;94.24
50364;BME280;36272;59.400;17.982;2023-08-07T09:16:37;99237.19;;;25.22;93.01
50364;BME280;36272;59.400;17.982;2023-08-07T09:21:39;99273.88;;;25.37;92.36
50364;BME280;36272;59.400;17.982;2023-08-07T09:26:42;99271.47;;;25.51;90.12
50364;BME280;36272;59.400;17.982;2023-08-07T09:31:54;99253.25;;;25.59;87.66
50364;BME280;36272;59.400;17.982;2023-08-07T09:36:56;99252.53;;;25.62;87.19
50364;BME280;36272;59.400;17.982;2023-08-07T09:41:58;99261.88;;;25.61;86.31
50364;BME280;36272;59.400;17.982;2023-08-07T09:46:59;99268.75;;;25.71;86.22
50364;BME280;36272;59.400;17.982;2023-08-07T09:52:05;99236.69;;;25.52;85.97
50364;BME280;36272;59.400;17.982;2023-08-07T09:57:08;99238.91;;;25.46;86.07
50364;BME280;36272;59.400;17.982;2023-08-07T10:02:10;99227.97;;;25.66;85.83
50364;BME280;36272;59.400;17.982;2023-08-07T10:07:13;99221.63;;;25.81;85.38
50364;BME280;36272;59.400;17.982;2023-08-07T10:12:16;99244.53;;;25.93;83.97
50364;BME280;36272;59.400;17.982;2023-08-07T10:17:18;99235.78;;;26.07;84.30
50364;BME280;36272;59.400;17.982;2023-08-07T10:22:29;99219.09;;;26.35;83.96
50364;BME280;36272;59.400;17.982;2023-08-07T10:27:37;99216.91;;;26.45;83.14
50364;BME280;36272;59.400;17.982;2023-08-07T10:32:41;99233.75;;;26.23;83.17
50364;BME280;36272;59.400;17.982;2023-08-07T10:37:44;99232.50;;;25.97;83.38
50364;BME280;36272;59.400;17.982;2023-08-07T10:42:58;99232.47;;;26.17;83.31
50364;BME280;36272;59.400;17.982;2023-08-07T10:48:13;99236.63;;;26.77;82.75
50364;BME280;36272;59.400;17.982;2023-08-07T10:58:37;99220.53;;;27.56;79.75
50364;BME280;36272;59.400;17.982;2023-08-07T11:03:42;99237.41;;;27.31;78.33
50364;BME280;36272;59.400;17.982;2023-08-07T11:08:44;99233.91;;;27.04;78.79
50364;BME280;36272;59.400;17.982;2023-08-07T11:13:46;99227.63;;;27.04;78.73
50364;BME280;36272;59.400;17.982;2023-08-07T11:18:48;99238.91;;;26.98;78.70
50364;BME280;36272;59.400;17.982;2023-08-07T11:23:50;99256.66;;;27.05;78.43
50364;BME280;36272;59.400;17.982;2023-08-07T11:28:52;99252.56;;;26.95;78.51
50364;BME280;36272;59.400;17.982;2023-08-07T11:34:03;99222.34;;;26.91;78.11
50364;BME280;36272;59.400;17.982;2023-08-07T11:39:06;99220.25;;;28.03;77.22
50364;BME280;36272;59.400;17.982;2023-08-07T11:44:08;99224.72;;;30.51;70.36
50364;BME280;36272;59.400;17.982;2023-08-07T11:49:10;99231.78;;;33.43;63.77
50364;BME280;36272;59.400;17.982;2023-08-07T11:54:14;99226.59;;;36.00;59.20
50364;BME280;36272;59.400;17.982;2023-08-07T11:59:19;99209.09;;;37.54;56.73
50364;BME280;36272;59.400;17.982;2023-08-07T12:04:21;99221.84;;;38.68;54.12
50364;BME280;36272;59.400;17.982;2023-08-07T12:09:22;99192.19;;;39.28;52.04
50364;BME280;36272;59.400;17.982;2023-08-07T12:14:31;99171.72;;;39.31;50.80
50364;BME280;36272;59.400;17.982;2023-08-07T12:19:39;99150.53;;;39.21;51.75
50364;BME280;36272;59.400;17.982;2023-08-07T12:24:41;99158.34;;;39.26;50.54
50364;BME280;36272;59.400;17.982;2023-08-07T12:29:44;99203.50;;;38.80;51.16
50364;BME280;36272;59.400;17.982;2023-08-07T12:34:45;99243.03;;;38.43;50.22
50364;BME280;36272;59.400;17.982;2023-08-07T12:39:47;99205.84;;;36.38;52.39
50364;BME280;36272;59.400;17.982;2023-08-07T12:44:49;99193.31;;;34.79;55.22
50364;BME280;36272;59.400;17.982;2023-08-07T12:49:50;99198.50;;;35.01;55.71
50364;BME280;36272;59.400;17.982;2023-08-07T12:54:52;99188.69;;;36.72;52.49
50364;BME280;36272;59.400;17.982;2023-08-07T12:59:53;99209.25;;;36.29;52.46
50364;BME280;36272;59.400;17.982;2023-08-07T13:04:55;99219.72;;;35.51;53.60
50364;BME280;36272;59.400;17.982;2023-08-07T13:09:57;99228.31;;;34.73;55.49
50364;BME280;36272;59.400;17.982;2023-08-07T13:14:59;99257.16;;;33.38;57.18
50364;BME280;36272;59.400;17.982;2023-08-07T13:20:02;99282.78;;;31.98;59.89
50364;BME280;36272;59.400;17.982;2023-08-07T13:25:12;99291.31;;;30.82;62.04
50364;BME280;36272;59.400;17.982;2023-08-07T13:30:14;99284.09;;;30.05;64.06
50364;BME280;36272;59.400;17.982;2023-08-07T13:35:16;99257.91;;;29.45;65.54
50364;BME280;36272;59.400;17.982;2023-08-07T13:40:18;99246.34;;;29.24;66.18
50364;BME280;36272;59.400;17.982;2023-08-07T13:45:20;99210.13;;;29.12;66.86
50364;BME280;36272;59.400;17.982;2023-08-07T13:50:21;99208.03;;;28.90;67.90
50364;BME280;36272;59.400;17.982;2023-08-07T13:55:23;99199.59;;;28.65;68.28
50364;BME280;36272;59.400;17.982;2023-08-07T14:00:25;99165.16;;;28.30;69.10
50364;BME280;36272;59.400;17.982;2023-08-07T14:05:27;99130.38;;;28.07;69.77
50364;BME280;36272;59.400;17.982;2023-08-07T14:10:29;99090.66;;;27.94;69.83
50364;BME280;36272;59.400;17.982;2023-08-07T14:15:30;99109.41;;;27.84;70.66
50364;BME280;36272;59.400;17.982;2023-08-07T14:20:32;99106.03;;;28.02;70.52
50364;BME280;36272;59.400;17.982;2023-08-07T14:25:33;99123.81;;;28.15;69.82
50364;BME280;36272;59.400;17.982;2023-08-07T14:30:35;99141.31;;;28.41;70.07
50364;BME280;36272;59.400;17.982;2023-08-07T14:35:37;99149.91;;;28.96;68.88
50364;BME280;36272;59.400;17.982;2023-08-07T14:40:38;99151.84;;;28.91;69.08
50364;BME280;36272;59.400;17.982;2023-08-07T14:45:42;99149.50;;;28.34;69.49
50364;BME280;36272;59.400;17.982;2023-08-07T14:50:44;99136.78;;;27.77;70.71
50364;BME280;36272;59.400;17.982;2023-08-07T14:55:45;99156.44;;;27.45;72.05
50364;BME280;36272;59.400;17.982;2023-08-07T15:00:47;99153.31;;;27.16;73.21
50364;BME280;36272;59.400;17.982;2023-08-07T15:05:50;99168.44;;;26.76;74.21
50364;BME280;36272;59.400;17.982;2023-08-07T15:10:52;99146.94;;;26.51;75.00
50364;BME280;36272;59.400;17.982;2023-08-07T15:16:00;99162.41;;;26.39;74.98
50364;BME280;36272;59.400;17.982;2023-08-07T15:21:03;99165.34;;;26.27;75.48
50364;BME280;36272;59.400;17.982;2023-08-07T15:26:05;99179.28;;;26.18;76.31
50364;BME280;36272;59.400;17.982;2023-08-07T15:31:08;99175.34;;;26.16;75.74
50364;BME280;36272;59.400;17.982;2023-08-07T15:36:10;99202.44;;;26.01;76.26
50364;BME280;36272;59.400;17.982;2023-08-07T15:41:12;99212.63;;;25.81;76.51
50364;BME280;36272;59.400;17.982;2023-08-07T15:46:13;99218.47;;;25.60;77.09
50364;BME280;36272;59.400;17.982;2023-08-07T15:51:15;99220.00;;;25.41;77.44
50364;BME280;36272;59.400;17.982;2023-08-07T15:56:17;99229.78;;;25.22;78.21
50364;BME280;36272;59.400;17.982;2023-08-07T16:01:18;99237.66;;;25.08;78.19
50364;BME280;36272;59.400;17.982;2023-08-07T16:06:20;99237.75;;;24.95;78.73
50364;BME280;36272;59.400;17.982;2023-08-07T16:11:23;99229.06;;;24.90;78.87
50364;BME280;36272;59.400;17.982;2023-08-07T16:16:24;99225.25;;;24.78;79.59
50364;BME280;36272;59.400;17.982;2023-08-07T16:21:26;99212.41;;;24.79;80.13
50364;BME280;36272;59.400;17.982;2023-08-07T16:26:28;99208.94;;;24.98;79.53
50364;BME280;36272;59.400;17.982;2023-08-07T16:31:29;99199.03;;;25.09;79.27
50364;BME280;36272;59.400;17.982;2023-08-07T16:36:31;99203.16;;;25.19;79.08
50364;BME280;36272;59.400;17.982;2023-08-07T16:41:33;99207.56;;;25.08;79.06
50364;BME280;36272;59.400;17.982;2023-08-07T16:46:34;99209.84;;;24.86;79.04
50364;BME280;36272;59.400;17.982;2023-08-07T16:51:36;99210.44;;;24.63;78.26
50364;BME280;36272;59.400;17.982;2023-08-07T16:56:37;99205.34;;;24.46;78.72
50364;BME280;36272;59.400;17.982;2023-08-07T17:01:39;99197.06;;;24.26;78.48
50364;BME280;36272;59.400;17.982;2023-08-07T17:06:43;99216.03;;;24.06;79.02
50364;BME280;36272;59.400;17.982;2023-08-07T17:11:45;99210.78;;;23.85;78.37
50364;BME280;36272;59.400;17.982;2023-08-07T17:16:47;99225.38;;;23.77;79.17
50364;BME280;36272;59.400;17.982;2023-08-07T17:21:49;99210.94;;;23.76;78.85
50364;BME280;36272;59.400;17.982;2023-08-07T17:26:51;99188.66;;;23.74;78.49
50364;BME280;36272;59.400;17.982;2023-08-07T17:31:52;99172.19;;;23.71;77.93
50364;BME280;36272;59.400;17.982;2023-08-07T17:36:59;99122.06;;;23.63;78.11
50364;BME280;36272;59.400;17.982;2023-08-07T17:42:00;99099.97;;;23.52;78.11
50364;BME280;36272;59.400;17.982;2023-08-07T17:47:02;99095.00;;;23.42;78.03
50364;BME280;36272;59.400;17.982;2023-08-07T17:52:04;99093.06;;;23.26;78.12
50364;BME280;36272;59.400;17.982;2023-08-07T17:57:06;99100.91;;;23.15;78.89
50364;BME280;36272;59.400;17.982;2023-08-07T18:02:07;99111.72;;;22.99;79.50
50364;BME280;36272;59.400;17.982;2023-08-07T18:07:09;99107.09;;;22.75;80.03
50364;BME280;36272;59.400;17.982;2023-08-07T18:12:11;99093.53;;;22.50;80.70
50364;BME280;36272;59.400;17.982;2023-08-07T18:17:12;99092.59;;;22.34;81.40
50364;BME280;36272;59.400;17.982;2023-08-07T18:22:14;99058.81;;;22.22;81.89
50364;BME280;36272;59.400;17.982;2023-08-07T18:27:16;99038.63;;;22.11;83.00
50364;BME280;36272;59.400;17.982;2023-08-07T18:32:19;99075.81;;;22.07;83.72
50364;BME280;36272;59.400;17.982;2023-08-07T18:37:20;99026.34;;;21.92;84.15
50364;BME280;36272;59.400;17.982;2023-08-07T18:42:22;99038.38;;;21.79;84.83
50364;BME280;36272;59.400;17.982;2023-08-07T18:47:23;99027.00;;;21.64;85.04
50364;BME280;36272;59.400;17.982;2023-08-07T18:52:25;99026.16;;;21.51;85.80
50364;BME280;36272;59.400;17.982;2023-08-07T18:57:27;99073.84;;;21.36;85.76
50364;BME280;36272;59.400;17.982;2023-08-07T19:02:28;99055.28;;;21.17;86.28
50364;BME280;36272;59.400;17.982;2023-08-07T19:07:30;99056.81;;;21.06;86.46
50364;BME280;36272;59.400;17.982;2023-08-07T19:12:32;99071.63;;;20.96;86.99
50364;BME280;36272;59.400;17.982;2023-08-07T19:17:33;99070.53;;;20.88;87.41
50364;BME280;36272;59.400;17.982;2023-08-07T19:22:35;99066.94;;;20.75;87.73
50364;BME280;36272;59.400;17.982;2023-08-07T19:27:38;99079.50;;;20.59;88.00
50364;BME280;36272;59.400;17.982;2023-08-07T19:32:40;99052.75;;;20.48;87.77
50364;BME280;36272;59.400;17.982;2023-08-07T19:37:41;99019.91;;;20.32;87.74
50364;BME280;36272;59.400;17.982;2023-08-07T19:42:43;99009.78;;;20.20;87.34
50364;BME280;36272;59.400;17.982;2023-08-07T19:47:46;98994.53;;;20.07;87.85
50364;BME280;36272;59.400;17.982;2023-08-07T19:52:48;99035.44;;;19.93;87.76
50364;BME280;36272;59.400;17.982;2023-08-07T19:57:50;99011.84;;;19.85;87.99
50364;BME280;36272;59.400;17.982;2023-08-07T20:02:52;99015.06;;;19.78;88.42
50364;BME280;36272;59.400;17.982;2023-08-07T20:07:53;99037.09;;;19.68;88.71
50364;BME280;36272;59.400;17.982;2023-08-07T20:12:55;99060.25;;;19.65;88.89
50364;BME280;36272;59.400;17.982;2023-08-07T20:17:56;99053.38;;;19.68;89.14
50364;BME280;36272;59.400;17.982;2023-08-07T20:22:58;99037.56;;;19.70;89.24
50364;BME280;36272;59.400;17.982;2023-08-07T20:28:00;99048.59;;;19.73;89.16
50364;BME280;36272;59.400;17.982;2023-08-07T20:33:02;99030.38;;;19.74;88.86
50364;BME280;36272;59.400;17.982;2023-08-07T20:38:04;98999.94;;;19.68;89.03
50364;BME280;36272;59.400;17.982;2023-08-07T20:43:05;99003.47;;;19.60;88.98
50364;BME280;36272;59.400;17.982;2023-08-07T20:48:09;99001.75;;;19.55;89.00
50364;BME280;36272;59.400;17.982;2023-08-07T20:53:11;99002.06;;;19.54;89.06
50364;BME280;36272;59.400;17.982;2023-08-07T20:58:12;99015.00;;;19.48;89.38
50364;BME280;36272;59.400;17.982;2023-08-07T21:03:14;99014.66;;;19.50;89.26
50364;BME280;36272;59.400;17.982;2023-08-07T21:08:16;99010.84;;;19.51;89.00
50364;BME280;36272;59.400;17.982;2023-08-07T21:13:17;99008.47;;;19.49;89.08
50364;BME280;36272;59.400;17.982;2023-08-07T21:18:19;98976.88;;;19.53;89.15
50364;BME280;36272;59.400;17.982;2023-08-07T21:23:20;98969.22;;;19.55;89.13
50364;BME280;36272;59.400;17.982;2023-08-07T21:28:22;98973.66;;;19.60;88.81
50364;BME280;36272;59.400;17.982;2023-08-07T21:33:24;98974.94;;;19.63;88.64
50364;BME280;36272;59.400;17.982;2023-08-07T21:38:26;98967.44;;;19.59;88.69
50364;BME280;36272;59.400;17.982;2023-08-07T21:43:27;98968.41;;;19.55;88.71
50364;BME280;36272;59.400;17.982;2023-08-07T21:48:29;98969.06;;;19.52;88.80
50364;BME280;36272;59.400;17.982;2023-08-07T21:53:31;98973.34;;;19.53;88.87
50364;BME280;36272;59.400;17.982;2023-08-07T21:58:34;98974.47;;;19.52;89.00
50364;BME280;36272;59.400;17.982;2023-08-07T22:03:36;98960.13;;;19.51;88.73
50364;BME280;36272;59.400;17.982;2023-08-07T22:08:37;98967.31;;;19.47;88.95
50364;BME280;36272;59.400;17.982;2023-08-07T22:13:39;98968.09;;;19.47;89.07
50364;BME280;36272;59.400;17.982;2023-08-07T22:18:41;98965.41;;;19.47;88.99
50364;BME280;36272;59.400;17.982;2023-08-07T22:23:42;98958.06;;;19.48;88.92
50364;BME280;36272;59.400;17.982;2023-08-07T22:28:44;98948.66;;;19.45;89.29
50364;BME280;36272;59.400;17.982;2023-08-07T22:33:47;98920.63;;;19.41;89.01
50364;BME280;36272;59.400;17.982;2023-08-07T22:38:48;98939.13;;;19.39;89.23
50364;BME280;36272;59.400;17.982;2023-08-07T22:43:50;98924.13;;;19.42;88.97
50364;BME280;36272;59.400;17.982;2023-08-07T22:48:51;98922.06;;;19.39;89.04
50364;BME280;36272;59.400;17.982;2023-08-07T22:53:54;98908.22;;;19.40;89.04
50364;BME280;36272;59.400;17.982;2023-08-07T22:58:55;98902.78;;;19.40;88.92
50364;BME280;36272;59.400;17.982;2023-08-07T23:03:57;98887.94;;;19.38;88.76
50364;BME280;36272;59.400;17.982;2023-08-07T23:08:59;98891.94;;;19.40;88.58
50364;BME280;36272;59.400;17.982;2023-08-07T23:14:01;98885.72;;;19.40;88.33
50364;BME280;36272;59.400;17.982;2023-08-07T23:19:03;98867.72;;;19.35;88.32
50364;BME280;36272;59.400;17.982;2023-08-07T23:24:05;98845.25;;;19.35;88.25
50364;BME280;36272;59.400;17.982;2023-08-07T23:29:07;98834.75;;;19.33;88.10
50364;BME280;36272;59.400;17.982;2023-08-07T23:34:09;98840.94;;;19.34;87.80
50364;BME280;36272;59.400;17.982;2023-08-07T23:39:10;98825.31;;;19.30;87.89
50364;BME280;36272;59.400;17.982;2023-08-07T23:44:12;98811.78;;;19.30;87.74
50364;BME280;36272;59.400;17.982;2023-08-07T23:49:14;98818.97;;;19.26;87.69
50364;BME280;36272;59.400;17.982;2023-08-07T23:54:15;98800.00;;;19.26;87.71
50364;BME280;36272;59.400;17.982;2023-08-07T23:59:17;98807.00;;;19.27;87.32
